createdAt,value
2023-02-26T00:01:31.996Z,3.37
2023-02-26T00:04:01.951Z,1.53
2023-02-26T00:06:33.601Z,1.80
2023-02-26T00:09:00.441Z,3.07
2023-02-26T00:11:27.625Z,4.13
2023-02-26T00:13:54.506Z,2.67
2023-02-26T00:16:33.872Z,2.30
2023-02-26T00:19:03.241Z,2.23
2023-02-26T00:21:31.084Z,1.73
2023-02-26T00:23:58.575Z,2.90
2023-02-26T00:26:27.279Z,3.50
2023-02-26T00:28:54.854Z,2.50
2023-02-26T00:31:24.731Z,1.87
2023-02-26T00:33:53.078Z,1.70
2023-02-26T00:36:52.365Z,1.90
2023-02-26T00:39:42.761Z,3.60
2023-02-26T00:42:09.709Z,4.70
2023-02-26T00:44:36.738Z,2.40
2023-02-26T00:47:30.118Z,4.20
2023-02-26T00:50:05.549Z,3.80
2023-02-26T00:52:46.638Z,4.23
2023-02-26T00:55:13.668Z,1.70
2023-02-26T00:57:40.514Z,2.20
2023-02-26T01:11:24.267Z,1.90
2023-02-26T01:13:51.157Z,2.07
2023-02-26T01:16:22.672Z,3.10
2023-02-26T01:18:56.402Z,2.27
2023-02-26T01:21:32.969Z,2.07
2023-02-26T01:24:03.496Z,2.03
2023-02-26T01:26:30.644Z,3.63
2023-02-26T01:28:57.624Z,2.30
2023-02-26T01:31:34.355Z,5.43
2023-02-26T01:34:17.254Z,4.60
2023-02-26T01:36:52.835Z,2.73
2023-02-26T01:39:37.351Z,2.23
2023-02-26T01:42:27.221Z,1.80
2023-02-26T01:45:01.070Z,2.47
2023-02-26T01:47:35.954Z,2.13
2023-02-26T01:50:15.670Z,2.03
2023-02-26T01:52:48.407Z,3.57
2023-02-26T01:55:23.981Z,4.30
2023-02-26T02:00:40.965Z,1.77
2023-02-26T02:03:08.006Z,1.87
2023-02-26T02:05:52.337Z,2.33
2023-02-26T02:08:21.329Z,2.10
2023-02-26T02:10:50.136Z,2.20
2023-02-26T02:13:28.472Z,2.50
2023-02-26T02:16:23.350Z,2.47
2023-02-26T02:19:09.115Z,2.47
2023-02-26T02:21:54.587Z,2.70
2023-02-26T02:24:48.640Z,1.83
2023-02-26T02:27:40.072Z,3.23
2023-02-26T02:30:17.968Z,2.30
2023-02-26T02:32:50.852Z,3.00
2023-02-26T02:35:17.861Z,2.13
2023-02-26T02:38:11.643Z,2.00
2023-02-26T02:40:43.755Z,2.27
2023-02-26T02:43:14.885Z,3.30
2023-02-26T02:45:50.120Z,2.17
2023-02-26T02:48:28.848Z,2.70
2023-02-26T02:51:06.313Z,2.73
2023-02-26T02:54:03.923Z,2.93
2023-02-26T02:56:40.182Z,2.83
2023-02-26T02:59:32.750Z,2.23
2023-02-26T03:02:15.490Z,2.40
2023-02-26T03:04:43.836Z,2.47
2023-02-26T03:07:11.090Z,3.40
2023-02-26T03:09:38.005Z,3.47
2023-02-26T03:12:05.235Z,2.00
2023-02-26T03:14:33.549Z,3.23
2023-02-26T03:17:00.544Z,2.30
2023-02-26T03:20:14.232Z,2.53
2023-02-26T03:22:53.929Z,2.40
2023-02-26T03:25:25.035Z,2.10
2023-02-26T03:31:22.060Z,2.43
2023-02-26T03:34:00.060Z,2.30
2023-02-26T03:36:40.984Z,2.20
2023-02-26T03:39:32.081Z,2.43
2023-02-26T03:42:41.919Z,2.67
2023-02-26T03:45:16.125Z,2.30
2023-02-26T03:47:46.513Z,2.63
2023-02-26T03:50:38.225Z,2.37
2023-02-26T03:53:09.729Z,2.67
2023-02-26T03:55:45.481Z,2.70
2023-02-26T03:58:12.141Z,3.53
2023-02-26T04:00:43.098Z,2.97
2023-02-26T04:03:21.905Z,5.00
2023-02-26T04:05:52.006Z,2.77
2023-02-26T04:08:21.335Z,2.67
2023-02-26T04:10:56.023Z,3.00
2023-02-26T04:13:22.731Z,3.20
2023-02-26T04:15:49.777Z,3.00
2023-02-26T04:18:16.489Z,2.97
2023-02-26T04:20:43.575Z,3.10
2023-02-26T04:23:10.201Z,4.07
2023-02-26T04:25:37.339Z,3.17
2023-02-26T04:28:04.021Z,3.07
2023-02-26T04:30:30.714Z,4.00
2023-02-26T04:32:57.814Z,3.63
2023-02-26T04:35:24.481Z,7.03
2023-02-26T04:40:38.908Z,6.03
2023-02-26T04:43:06.020Z,4.37
2023-02-26T04:45:32.723Z,3.77
2023-02-26T04:47:59.738Z,5.23
2023-02-26T04:50:26.404Z,3.73
2023-02-26T04:52:53.106Z,3.70
2023-02-26T04:55:19.771Z,3.30
2023-02-26T04:57:47.407Z,3.13
2023-02-26T05:00:15.805Z,5.13
2023-02-26T05:02:42.946Z,3.20
2023-02-26T05:05:10.744Z,4.47
2023-02-26T05:07:37.801Z,5.20
2023-02-26T05:10:07.028Z,3.97
2023-02-26T05:12:33.904Z,3.10
2023-02-26T05:15:01.001Z,3.20
2023-02-26T05:17:27.652Z,2.77
2023-02-26T05:19:54.384Z,2.57
2023-02-26T05:22:21.380Z,2.87
2023-02-26T05:24:48.643Z,2.80
2023-02-26T05:27:15.720Z,2.80
2023-02-26T05:29:45.213Z,3.70
2023-02-26T05:32:11.986Z,2.77
2023-02-26T05:34:39.437Z,3.00
2023-02-26T05:37:06.062Z,2.97
2023-02-26T05:39:33.118Z,2.20
2023-02-26T05:41:59.864Z,3.07
2023-02-26T05:44:43.278Z,2.57
2023-02-26T05:47:10.065Z,2.43
2023-02-26T05:49:37.465Z,3.23
2023-02-26T05:52:04.196Z,2.50
2023-02-26T05:54:30.923Z,3.50
2023-02-26T05:56:58.133Z,2.50
2023-02-26T05:59:24.865Z,2.30
2023-02-26T06:01:52.031Z,3.20
2023-02-26T06:04:18.689Z,2.50
2023-02-26T06:06:45.745Z,2.63
2023-02-26T06:09:12.889Z,2.63
2023-02-26T06:11:40.525Z,2.57
2023-02-26T06:14:07.362Z,2.30
2023-02-26T06:16:35.804Z,2.60
2023-02-26T06:19:03.140Z,2.83
2023-02-26T06:21:29.953Z,2.33
2023-02-26T06:23:56.636Z,3.10
2023-02-26T06:26:24.000Z,2.90
2023-02-26T06:28:51.313Z,2.77
2023-02-26T06:31:18.011Z,2.53
2023-02-26T06:33:45.141Z,2.17
2023-02-26T06:36:12.163Z,2.20
2023-02-26T06:38:39.208Z,3.10
2023-02-26T06:41:05.964Z,1.90
2023-02-26T06:43:33.002Z,1.93
2023-02-26T06:46:00.282Z,2.03
2023-02-26T06:48:27.378Z,1.67
2023-02-26T06:50:54.500Z,2.50
2023-02-26T06:53:21.244Z,1.90
2023-02-26T06:55:52.120Z,1.47
2023-02-26T06:58:18.951Z,1.60
2023-02-26T07:00:46.127Z,1.60
2023-02-26T07:03:15.494Z,1.90
2023-02-26T07:05:42.424Z,1.80
2023-02-26T07:08:09.088Z,1.53
2023-02-26T07:10:37.222Z,1.60
2023-02-26T07:13:04.042Z,1.43
2023-02-26T07:15:31.690Z,1.60
2023-02-26T07:18:00.060Z,1.50
2023-02-26T07:20:27.650Z,1.13
2023-02-26T07:22:54.265Z,1.40
2023-02-26T07:25:21.390Z,1.60
2023-02-26T07:27:48.593Z,1.50
2023-02-26T07:30:15.351Z,1.33
2023-02-26T07:32:42.557Z,2.20
2023-02-26T07:35:09.746Z,1.37
2023-02-26T07:37:37.029Z,1.77
2023-02-26T07:40:04.336Z,1.40
2023-02-26T07:42:31.390Z,1.30
2023-02-26T07:44:58.625Z,2.07
2023-02-26T07:47:25.388Z,1.37
2023-02-26T07:49:51.988Z,1.30
2023-02-26T07:52:19.088Z,1.20
2023-02-26T07:54:46.124Z,1.20
2023-02-26T07:57:13.194Z,1.20
2023-02-26T07:59:39.787Z,1.30
2023-02-26T08:02:07.135Z,1.30
2023-02-26T08:04:34.364Z,1.30
2023-02-26T08:07:01.570Z,1.10
2023-02-26T08:09:28.883Z,1.33
2023-02-26T08:11:55.497Z,1.40
2023-02-26T08:14:22.410Z,1.30
2023-02-26T08:16:50.745Z,1.00
2023-02-26T08:22:05.833Z,1.40
2023-02-26T08:24:33.350Z,1.87
2023-02-26T08:27:00.405Z,4.23
2023-02-26T08:29:27.003Z,9.17
2023-02-26T08:31:53.806Z,24.87
2023-02-26T08:34:21.068Z,9.97
2023-02-26T08:36:47.761Z,7.77
2023-02-26T08:39:14.908Z,5.47
2023-02-26T08:41:41.520Z,18.43
2023-02-26T08:44:08.818Z,10.90
2023-02-26T08:46:35.498Z,6.50
2023-02-26T08:49:02.618Z,9.37
2023-02-26T08:51:29.353Z,35.47
2023-02-26T08:53:56.694Z,44.00
2023-02-26T08:56:24.152Z,27.47
2023-02-26T08:58:52.435Z,13.33
2023-02-26T09:01:19.544Z,19.80
2023-02-26T09:03:46.163Z,19.87
2023-02-26T09:06:13.259Z,10.90
2023-02-26T09:08:40.281Z,16.10
2023-02-26T09:11:06.906Z,23.73
2023-02-26T09:13:33.864Z,37.17
2023-02-26T09:16:00.546Z,15.50
2023-02-26T09:18:27.731Z,3.13
2023-02-26T09:20:54.648Z,4.07
2023-02-26T09:23:21.280Z,12.77
2023-02-26T09:25:54.589Z,15.67
2023-02-26T09:28:22.475Z,3.10
2023-02-26T09:30:53.018Z,20.83
2023-02-26T09:33:20.131Z,6.07
2023-02-26T09:35:51.490Z,2.73
2023-02-26T09:38:19.392Z,3.70
2023-02-26T09:40:56.518Z,6.10
2023-02-26T09:43:44.188Z,5.17
2023-02-26T09:46:26.145Z,3.23
2023-02-26T09:49:05.663Z,2.53
2023-02-26T09:51:35.194Z,6.00
2023-02-26T09:54:15.057Z,10.97
2023-02-26T09:56:42.748Z,3.20
2023-02-26T09:59:11.049Z,12.23
2023-02-26T10:02:01.857Z,8.97
2023-02-26T10:04:55.988Z,3.57
2023-02-26T10:07:51.719Z,5.00
2023-02-26T10:10:30.702Z,2.07
2023-02-26T10:13:00.665Z,2.97
2023-02-26T10:15:42.026Z,1.17
2023-02-26T10:18:18.755Z,1.23
2023-02-26T10:20:56.849Z,4.07
2023-02-26T10:23:43.906Z,1.20
2023-02-26T10:26:27.423Z,1.10
2023-02-26T10:29:31.923Z,1.37
2023-02-26T10:32:07.709Z,2.80
2023-02-26T10:34:43.933Z,0.90
2023-02-26T10:37:20.666Z,1.50
2023-02-26T10:40:14.453Z,1.30
2023-02-26T10:43:07.974Z,1.93
2023-02-26T10:45:50.189Z,3.33
2023-02-26T10:48:43.086Z,1.30
2023-02-26T10:51:14.449Z,1.20
2023-02-26T10:53:47.307Z,2.50
2023-02-26T10:56:34.435Z,1.33
2023-02-26T10:59:01.655Z,1.57
2023-02-26T11:01:45.902Z,1.83
2023-02-26T11:04:19.008Z,1.30
2023-02-26T11:06:47.573Z,1.50
2023-02-26T11:09:44.713Z,1.53
2023-02-26T11:12:11.579Z,1.10
2023-02-26T11:14:40.165Z,1.03
2023-02-26T11:17:23.020Z,1.63
2023-02-26T11:19:59.001Z,2.87
2023-02-26T11:22:28.741Z,1.40
2023-02-26T11:24:56.913Z,1.87
2023-02-26T11:27:37.121Z,1.10
2023-02-26T11:30:14.754Z,2.63
2023-02-26T11:32:45.706Z,2.63
2023-02-26T11:35:15.071Z,1.90
2023-02-26T11:37:48.014Z,1.83
2023-02-26T11:40:41.329Z,4.20
2023-02-26T11:43:14.257Z,1.63
2023-02-26T11:45:44.770Z,2.53
2023-02-26T11:48:25.575Z,1.97
2023-02-26T11:51:00.514Z,1.03
2023-02-26T11:53:37.047Z,1.30
2023-02-26T11:56:12.084Z,3.23
2023-02-26T11:58:41.080Z,2.30
2023-02-26T12:01:10.722Z,2.40
2023-02-26T12:03:43.395Z,2.10
2023-02-26T12:06:21.330Z,1.40
2023-02-26T12:08:48.431Z,2.67
2023-02-26T12:11:32.759Z,8.53
2023-02-26T12:14:33.829Z,3.60
2023-02-26T12:17:20.811Z,5.00
2023-02-26T12:20:29.207Z,1.27
2023-02-26T12:23:26.047Z,5.20
2023-02-26T12:26:01.555Z,1.33
2023-02-26T12:29:00.976Z,1.20
2023-02-26T12:32:14.062Z,2.40
2023-02-26T12:35:00.869Z,2.00
2023-02-26T12:37:50.678Z,1.20
2023-02-26T12:40:32.522Z,1.50
2023-02-26T12:43:26.634Z,1.63
2023-02-26T12:46:38.540Z,2.33
2023-02-26T12:49:23.855Z,1.77
2023-02-26T12:52:23.933Z,2.40
2023-02-26T12:55:09.103Z,2.37
2023-02-26T12:57:35.935Z,2.73
2023-02-26T13:00:24.451Z,2.97
2023-02-26T13:03:12.275Z,2.40
2023-02-26T13:06:16.507Z,4.13
2023-02-26T13:09:31.477Z,1.50
2023-02-26T13:12:30.805Z,2.17
2023-02-26T13:15:35.257Z,1.60
2023-02-26T13:18:09.624Z,1.33
2023-02-26T13:20:40.114Z,1.37
2023-02-26T13:23:16.013Z,2.67
2023-02-26T13:25:57.880Z,2.97
2023-02-26T13:28:48.755Z,7.33
2023-02-26T13:31:30.603Z,3.97
2023-02-26T13:34:02.510Z,5.77
2023-02-26T13:36:29.812Z,3.70
2023-02-26T13:38:56.436Z,5.67
2023-02-26T13:41:41.234Z,1.70
2023-02-26T13:44:29.457Z,1.67
2023-02-26T13:47:28.593Z,3.60
2023-02-26T13:50:14.506Z,1.40
2023-02-26T13:52:52.932Z,2.50
2023-02-26T13:55:41.566Z,1.63
2023-02-26T13:58:33.565Z,3.60
2023-02-26T14:01:34.449Z,1.43
2023-02-26T14:04:19.826Z,2.10
2023-02-26T14:06:59.813Z,2.13
2023-02-26T14:09:54.975Z,5.20
2023-02-26T14:12:31.183Z,1.90
2023-02-26T14:15:27.622Z,2.60
2023-02-26T14:18:03.301Z,11.50
2023-02-26T14:20:31.774Z,10.80
2023-02-26T14:23:13.020Z,3.10
2023-02-26T14:25:49.278Z,2.87
2023-02-26T14:28:25.016Z,4.63
2023-02-26T14:31:13.173Z,3.53
2023-02-26T14:34:02.860Z,1.53
2023-02-26T14:36:45.453Z,2.20
2023-02-26T14:39:57.320Z,4.13
2023-02-26T14:42:50.192Z,3.63
2023-02-26T14:45:16.803Z,3.47
2023-02-26T14:47:48.507Z,3.73
2023-02-26T14:50:19.092Z,2.87
2023-02-26T14:52:48.746Z,2.40
2023-02-26T14:55:35.191Z,3.93
2023-02-26T14:58:14.059Z,4.00
2023-02-26T15:00:40.674Z,3.63
2023-02-26T15:03:26.988Z,2.87
2023-02-26T15:05:57.673Z,2.10
2023-02-26T15:08:30.279Z,3.20
2023-02-26T15:11:08.844Z,2.13
2023-02-26T15:13:35.398Z,1.77
2023-02-26T15:16:16.223Z,1.57
2023-02-26T15:18:49.042Z,2.23
2023-02-26T15:21:41.179Z,1.70
2023-02-26T15:24:11.766Z,1.80
2023-02-26T15:26:49.492Z,1.77
2023-02-26T15:29:16.629Z,2.97
2023-02-26T15:32:22.404Z,1.60
2023-02-26T15:35:07.382Z,3.33
2023-02-26T15:37:36.356Z,1.63
2023-02-26T15:40:07.218Z,1.77
2023-02-26T15:42:41.833Z,2.07
2023-02-26T15:45:27.068Z,1.70
2023-02-26T15:48:04.369Z,1.90
2023-02-26T15:50:35.093Z,2.43
2023-02-26T15:53:04.868Z,1.47
2023-02-26T15:55:41.001Z,2.50
2023-02-26T15:58:08.354Z,1.67
2023-02-26T16:00:37.251Z,1.70
2023-02-26T16:03:04.581Z,1.73
2023-02-26T16:05:32.155Z,2.13
2023-02-26T16:07:58.862Z,2.40
2023-02-26T16:10:43.410Z,1.60
2023-02-26T16:13:18.962Z,7.60
2023-02-26T16:15:47.676Z,2.37
2023-02-26T16:18:18.347Z,2.07
2023-02-26T16:20:48.539Z,1.60
2023-02-26T16:23:23.170Z,1.83
2023-02-26T16:25:51.990Z,2.10
2023-02-26T16:28:45.818Z,2.37
2023-02-26T16:31:19.541Z,1.97
2023-02-26T16:33:59.211Z,3.93
2023-02-26T16:36:30.730Z,2.57
2023-02-26T16:39:18.160Z,1.60
2023-02-26T16:41:49.659Z,1.83
2023-02-26T16:44:31.800Z,1.37
2023-02-26T16:46:59.606Z,1.60
2023-02-26T16:49:31.437Z,2.83
2023-02-26T16:51:59.683Z,3.30
2023-02-26T16:54:38.213Z,2.53
2023-02-26T16:57:22.899Z,2.23
2023-02-26T16:59:55.893Z,3.67
2023-02-26T17:02:27.524Z,1.47
2023-02-26T17:04:59.789Z,1.73
2023-02-26T17:07:31.492Z,2.53
2023-02-26T17:10:04.577Z,1.30
2023-02-26T17:12:46.031Z,2.20
2023-02-26T17:15:30.179Z,2.97
2023-02-26T17:17:58.365Z,1.40
2023-02-26T17:20:26.425Z,5.23
2023-02-26T17:22:54.622Z,1.90
2023-02-26T17:25:25.438Z,1.40
2023-02-26T17:27:52.485Z,1.53
2023-02-26T17:30:22.488Z,3.37
2023-02-26T17:32:49.187Z,1.70
2023-02-26T17:35:18.407Z,4.60
2023-02-26T17:37:46.813Z,2.17
2023-02-26T17:40:32.148Z,3.77
2023-02-26T17:43:00.037Z,2.80
2023-02-26T17:45:27.125Z,3.33
2023-02-26T17:47:53.813Z,2.00
2023-02-26T17:50:41.962Z,4.13
2023-02-26T17:53:09.418Z,2.40
2023-02-26T17:55:39.811Z,2.10
2023-02-26T17:58:13.284Z,1.60
2023-02-26T18:00:41.974Z,2.40
2023-02-26T18:03:12.247Z,3.43
2023-02-26T18:05:39.144Z,4.97
2023-02-26T18:08:07.508Z,2.67
2023-02-26T18:10:34.178Z,2.33
2023-02-26T18:13:01.534Z,2.63
2023-02-26T18:15:28.173Z,3.73
2023-02-26T18:17:55.285Z,2.50
2023-02-26T18:20:22.844Z,3.13
2023-02-26T18:22:50.849Z,2.47
2023-02-26T18:25:18.588Z,2.57
2023-02-26T18:28:00.440Z,3.50
2023-02-26T18:30:30.681Z,2.20
2023-02-26T18:32:57.721Z,1.97
2023-02-26T18:35:25.989Z,2.17
2023-02-26T18:37:53.811Z,2.43
2023-02-26T18:40:23.856Z,3.87
2023-02-26T18:42:51.394Z,5.07
2023-02-26T18:45:19.272Z,4.27
2023-02-26T18:47:47.660Z,4.47
2023-02-26T18:50:16.426Z,2.87
2023-02-26T18:52:43.358Z,7.50
2023-02-26T18:55:12.083Z,2.20
2023-02-26T18:57:40.884Z,1.90
2023-02-26T19:00:35.427Z,1.67
2023-02-26T19:03:02.491Z,1.67
2023-02-26T19:05:29.146Z,4.30
2023-02-26T19:07:56.281Z,1.80
2023-02-26T19:10:23.647Z,2.30
2023-02-26T19:12:50.908Z,2.03
2023-02-26T19:15:18.310Z,1.57
2023-02-26T19:17:45.467Z,2.93
2023-02-26T19:20:13.511Z,1.97
2023-02-26T19:22:40.381Z,3.63
2023-02-26T19:25:08.177Z,2.30
2023-02-26T19:27:35.300Z,2.77
2023-02-26T19:30:03.726Z,2.13
2023-02-26T19:32:31.491Z,4.73
2023-02-26T19:34:58.292Z,1.90
2023-02-26T19:37:24.887Z,2.40
2023-02-26T19:39:51.537Z,4.43
2023-02-26T19:42:18.869Z,4.40
2023-02-26T19:44:45.928Z,2.37
2023-02-26T19:47:13.066Z,2.17
2023-02-26T19:49:40.378Z,2.53
2023-02-26T19:52:08.943Z,4.00
2023-02-26T19:54:35.946Z,2.73
2023-02-26T19:57:02.545Z,3.70
2023-02-26T19:59:29.707Z,6.20
2023-02-26T20:01:56.461Z,3.93
2023-02-26T20:04:23.525Z,3.47
2023-02-26T20:06:50.698Z,2.50
2023-02-26T20:09:18.978Z,3.23
2023-02-26T20:11:46.338Z,2.37
2023-02-26T20:14:13.377Z,3.13
2023-02-26T20:16:40.741Z,4.17
2023-02-26T20:19:08.065Z,3.03
2023-02-26T20:21:34.836Z,2.87
2023-02-26T20:24:01.944Z,3.60
2023-02-26T20:26:28.624Z,3.20
2023-02-26T20:28:55.879Z,2.40
2023-02-26T20:31:23.164Z,3.00
2023-02-26T20:33:49.985Z,2.73
2023-02-26T20:36:17.550Z,3.50
2023-02-26T20:38:44.431Z,2.50
2023-02-26T20:41:11.515Z,3.07
2023-02-26T20:43:38.420Z,2.60
2023-02-26T20:46:05.856Z,2.93
2023-02-26T20:48:32.896Z,3.20
2023-02-26T20:51:01.753Z,4.60
2023-02-26T20:53:29.410Z,3.27
2023-02-26T20:55:56.353Z,3.87
2023-02-26T20:58:24.114Z,3.77
2023-02-26T21:00:52.296Z,4.33
2023-02-26T21:03:19.392Z,3.67
2023-02-26T21:05:47.327Z,2.50
2023-02-26T21:08:14.450Z,4.50
2023-02-26T21:10:41.806Z,3.33
2023-02-26T21:13:09.760Z,2.37
2023-02-26T21:15:36.460Z,3.37
2023-02-26T21:18:03.597Z,6.50
2023-02-26T21:20:30.277Z,2.73
2023-02-26T21:22:57.342Z,2.90
2023-02-26T21:25:24.234Z,3.57
2023-02-26T21:27:51.424Z,3.23
2023-02-26T21:30:20.186Z,2.93
2023-02-26T21:32:46.884Z,3.37
2023-02-26T21:35:15.953Z,4.03
2023-02-26T21:37:44.696Z,2.83
2023-02-26T21:40:13.069Z,4.73
2023-02-26T21:42:40.508Z,5.93
2023-02-26T21:45:07.861Z,2.30
2023-02-26T21:47:34.917Z,5.43
2023-02-26T21:50:01.613Z,5.17
2023-02-26T21:52:28.837Z,2.13
2023-02-26T21:54:57.439Z,2.33
2023-02-26T21:57:25.587Z,2.30
2023-02-26T21:59:52.755Z,3.97
2023-02-26T22:02:19.945Z,5.60
2023-02-26T22:04:47.201Z,3.07
2023-02-26T22:07:13.884Z,2.83
2023-02-26T22:09:41.114Z,2.20
2023-02-26T22:12:08.320Z,3.87
2023-02-26T22:14:35.088Z,2.67
2023-02-26T22:17:02.437Z,2.13
2023-02-26T22:19:29.477Z,1.77
2023-02-26T22:21:56.109Z,2.37
2023-02-26T22:24:22.791Z,3.53
2023-02-26T22:26:49.947Z,2.30
2023-02-26T22:29:19.308Z,3.27
2023-02-26T22:31:47.354Z,3.63
2023-02-26T22:34:14.726Z,4.33
2023-02-26T22:36:41.778Z,4.17
2023-02-26T22:39:08.549Z,2.73
2023-02-26T22:41:35.908Z,3.30
2023-02-26T22:44:03.311Z,4.80
2023-02-26T22:46:30.049Z,2.57
2023-02-26T22:48:57.321Z,2.53
2023-02-26T22:51:25.136Z,3.27
2023-02-26T22:53:52.084Z,3.77
2023-02-26T22:56:19.200Z,2.80
2023-02-26T22:58:45.827Z,2.30
2023-02-26T23:01:13.044Z,3.17
2023-02-26T23:03:40.325Z,4.50
2023-02-26T23:06:07.561Z,3.37
2023-02-26T23:08:34.282Z,2.23
2023-02-26T23:11:02.978Z,2.67
2023-02-26T23:13:34.038Z,2.53
2023-02-26T23:16:01.977Z,4.03
2023-02-26T23:18:29.966Z,5.40
2023-02-26T23:20:56.683Z,3.40
2023-02-26T23:23:24.215Z,4.10
2023-02-26T23:25:50.814Z,3.27
2023-02-26T23:28:17.513Z,3.30
2023-02-26T23:30:45.049Z,3.60
2023-02-26T23:33:12.357Z,5.33
2023-02-26T23:35:39.077Z,5.73
2023-02-26T23:38:06.850Z,3.20
2023-02-26T23:40:34.382Z,3.27
2023-02-26T23:43:01.674Z,3.53
2023-02-26T23:45:28.352Z,4.40
2023-02-26T23:47:55.108Z,4.30
2023-02-26T23:50:22.214Z,5.00
2023-02-26T23:52:48.872Z,4.10
2023-02-26T23:55:16.721Z,4.10
2023-02-26T23:57:43.856Z,5.03
